Time;durP1;ratioP1;P1;durP2;ratioP2;P2;SDS_P1;SDS_P2;PMS_P1;PMS_P2;Temp;Humidity;BMP_temperature;BMP_pressure;BME280_temperature;BME280_humidity;BME280_pressure;Samples;Min_cycle;Max_cycle;Signal;HPM_P1;HPM_P2
2022/07/15 00:02:03;;;;;;;0.22;0.15;;;;;;;14.77;85.12;102102.72;5040352;28;20028;-75
2022/07/15 00:04:29;;;;;;;0.10;0.10;;;;;;;14.93;84.86;102123.31;5021191;28;20033;-75
2022/07/15 00:06:54;;;;;;;2.17;0.30;;;;;;;14.90;84.21;102103.19;5040087;28;20022;-75
2022/07/15 00:09:19;;;;;;;1.20;0.20;;;;;;;14.93;83.71;102112.69;5038271;28;20032;-75
2022/07/15 00:11:45;;;;;;;1.27;0.30;;;;;;;14.93;84.12;102113.53;5027539;28;20044;-75
2022/07/15 00:14:10;;;;;;;0.80;0.38;;;;;;;14.80;84.15;102095.25;5040242;28;20029;-75
2022/07/15 00:16:36;;;;;;;0.30;0.20;;;;;;;14.89;83.79;102112.16;5037958;28;20128;-75
2022/07/15 00:19:01;;;;;;;0.13;0.13;;;;;;;14.93;84.29;102110.03;5036709;28;20036;-75
2022/07/15 00:21:27;;;;;;;0.22;0.22;;;;;;;14.91;84.53;102110.19;5039556;28;20515;-75
2022/07/15 00:23:52;;;;;;;0.10;0.10;;;;;;;14.51;84.80;102050.19;5037542;28;20481;-75
2022/07/15 00:26:18;;;;;;;3.55;0.80;;;;;;;14.92;84.23;102111.88;5037355;28;20044;-75
2022/07/15 00:28:43;;;;;;;0.20;0.10;;;;;;;14.93;84.99;102110.03;5039393;28;20501;-75
2022/07/15 00:31:08;;;;;;;0.10;0.10;;;;;;;14.94;84.22;102103.75;5025913;28;20029;-75
2022/07/15 00:33:34;;;;;;;0.40;0.20;;;;;;;14.80;83.75;102089.94;5038386;28;20032;-75
2022/07/15 00:35:59;;;;;;;1.73;1.05;;;;;;;14.88;83.04;102094.53;5039006;28;20123;-75
2022/07/15 00:38:25;;;;;;;0.40;0.10;;;;;;;14.82;83.48;102080.00;5034047;28;20022;-75
2022/07/15 00:40:50;;;;;;;1.27;0.40;;;;;;;14.87;82.75;102092.00;5038760;28;20398;-75
2022/07/15 00:43:17;;;;;;;0.47;0.20;;;;;;;14.87;83.48;102100.00;5038072;28;20036;-75
2022/07/15 00:45:44;;;;;;;1.42;0.40;;;;;;;14.83;83.33;102099.47;5019971;28;20044;-76
2022/07/15 00:48:10;;;;;;;1.33;0.15;;;;;;;14.76;82.91;102104.53;5037368;28;20113;-75
2022/07/15 00:50:36;;;;;;;1.02;0.22;;;;;;;14.77;82.40;102092.91;5035011;28;20428;-74
2022/07/15 00:53:12;;;;;;;3.30;1.35;;;;;;;14.73;82.41;102090.69;5040096;28;20029;-74
2022/07/15 00:55:42;;;;;;;2.50;0.20;;;;;;;14.65;81.88;102088.75;5036013;28;20227;-74
2022/07/15 00:58:13;;;;;;;0.10;0.10;;;;;;;14.62;81.90;102094.38;5042954;28;20440;-74
2022/07/15 01:00:38;;;;;;;;;;;;;;;14.55;82.30;102103.91;5035306;28;20083;-73
2022/07/15 01:03:05;;;;;;;1.20;0.55;;;;;;;14.49;82.44;102093.84;5035320;28;19921;-74
2022/07/15 01:05:30;;;;;;;1.00;0.63;;;;;;;14.49;82.16;102093.84;5034687;28;20056;-74
2022/07/15 01:07:56;;;;;;;0.63;0.47;;;;;;;14.54;82.82;102094.22;5035157;28;20064;-74
2022/07/15 01:10:23;;;;;;;0.70;0.08;;;;;;;14.52;82.90;102104.16;5039401;28;20030;-74
2022/07/15 01:12:50;;;;;;;1.00;0.25;;;;;;;14.39;82.89;102084.09;5038380;28;20033;-74
2022/07/15 01:15:17;;;;;;;3.22;1.30;;;;;;;14.47;82.70;102095.81;5032518;28;20040;-74
2022/07/15 01:17:44;;;;;;;0.50;0.30;;;;;;;14.43;82.70;102089.09;5035119;28;20037;-75
2022/07/15 01:20:10;;;;;;;0.10;0.10;;;;;;;14.39;82.14;102092.06;5024249;28;20055;-75
2022/07/15 01:22:35;;;;;;;0.38;0.20;;;;;;;14.32;82.73;102090.09;5024455;28;20041;-74
2022/07/15 01:25:01;;;;;;;0.28;0.28;;;;;;;14.28;82.16;102096.69;5036850;28;20091;-74
2022/07/15 01:27:27;;;;;;;0.38;0.25;;;;;;;14.25;81.58;102092.50;5034554;28;20025;-74
2022/07/15 01:29:53;;;;;;;0.45;0.20;;;;;;;14.09;81.05;102071.88;5037186;28;20032;-74
2022/07/15 01:32:18;;;;;;;3.10;0.30;;;;;;;14.12;81.34;102097.28;5038884;28;20223;-76
2022/07/15 01:34:43;;;;;;;2.10;0.40;;;;;;;13.97;80.66;102076.47;5038325;28;20124;-74
2022/07/15 01:37:09;;;;;;;0.73;0.20;;;;;;;14.06;80.24;102097.84;5031187;28;20063;-74
2022/07/15 01:39:34;;;;;;;2.67;0.55;;;;;;;14.04;80.66;102100.63;5036778;28;20201;-75
2022/07/15 01:42:00;;;;;;;2.80;0.90;;;;;;;13.96;80.42;102093.41;5033864;28;20452;-75
2022/07/15 01:44:25;;;;;;;0.40;0.20;;;;;;;13.95;80.12;102094.38;5038553;28;20060;-74
2022/07/15 01:46:51;;;;;;;0.00;0.00;;;;;;;14.02;80.36;102101.78;5037952;28;20018;-74
2022/07/15 01:49:22;;;;;;;0.08;0.08;;;;;;;13.96;80.59;102109.31;5036044;28;20037;-74
2022/07/15 01:51:50;;;;;;;0.47;0.20;;;;;;;13.89;79.98;102107.38;5033293;28;20075;-74
2022/07/15 01:54:17;;;;;;;0.00;0.00;;;;;;;13.81;80.74;102108.09;5037039;28;20057;-74
2022/07/15 01:56:43;;;;;;;0.00;0.00;;;;;;;13.70;81.11;102103.75;5037564;28;20099;-75
2022/07/15 01:59:08;;;;;;;6.18;0.47;;;;;;;13.65;81.68;102103.31;5036998;28;20049;-74
2022/07/15 02:01:34;;;;;;;0.65;0.30;;;;;;;13.51;81.75;102093.97;5037747;28;20059;-74
2022/07/15 02:03:59;;;;;;;1.20;0.10;;;;;;;13.50;81.18;102102.06;5036237;28;20049;-74
2022/07/15 02:06:25;;;;;;;0.25;0.25;;;;;;;13.54;82.63;102114.06;5032665;28;20448;-74
2022/07/15 02:08:50;;;;;;;0.08;0.08;;;;;;;13.52;82.11;102108.06;5037573;28;20029;-74
2022/07/15 02:11:16;;;;;;;0.10;0.10;;;;;;;13.48;81.89;102110.16;5016599;28;20040;-74
2022/07/15 02:13:41;;;;;;;0.00;0.00;;;;;;;13.45;82.76;102110.44;5032473;28;20053;-74
2022/07/15 02:16:07;;;;;;;0.20;0.10;;;;;;;13.46;83.06;102109.47;5034400;28;20124;-75
2022/07/15 02:18:32;;;;;;;0.30;0.15;;;;;;;13.37;83.68;102118.25;5021744;28;20029;-75
2022/07/15 02:20:57;;;;;;;0.38;0.03;;;;;;;13.25;83.41;102096.28;5036040;28;20021;-75
2022/07/15 02:23:23;;;;;;;1.90;0.40;;;;;;;13.31;84.61;102113.50;5036269;28;20116;-75
2022/07/15 02:25:49;;;;;;;0.22;0.15;;;;;;;13.26;84.81;102105.94;5036383;28;20037;-75
2022/07/15 02:28:15;;;;;;;0.08;0.08;;;;;;;13.21;84.61;102107.28;5035649;28;20315;-74
2022/07/15 02:30:41;;;;;;;0.52;0.20;;;;;;;13.18;84.31;102095.16;5020056;28;20109;-74
2022/07/15 02:33:07;;;;;;;0.15;0.03;;;;;;;13.27;84.27;102106.75;5037159;28;20546;-76
2022/07/15 02:35:33;;;;;;;0.10;0.10;;;;;;;13.31;84.20;102110.84;5034972;28;20372;-74
2022/07/15 02:37:59;;;;;;;0.20;0.10;;;;;;;13.37;83.98;102105.00;5032877;28;20596;-74
2022/07/15 02:40:25;;;;;;;0.10;0.10;;;;;;;13.42;82.13;102113.38;5035230;28;20029;-75
2022/07/15 02:42:56;;;;;;;0.17;0.15;;;;;;;13.50;83.13;102112.66;5036628;28;20488;-74
2022/07/15 02:45:24;;;;;;;0.52;0.52;;;;;;;13.55;81.85;102111.28;5039447;28;20397;-73
2022/07/15 02:47:50;;;;;;;1.17;0.40;;;;;;;13.64;82.40;102114.09;5033096;28;20020;-74
2022/07/15 02:50:16;;;;;;;0.30;0.30;;;;;;;13.67;82.70;102105.84;5033006;28;20064;-75
2022/07/15 02:52:42;;;;;;;0.10;0.10;;;;;;;13.66;83.10;102107.66;5034083;28;20064;-75
2022/07/15 02:55:09;;;;;;;1.55;0.13;;;;;;;13.67;82.91;102109.31;5034084;28;20033;-75
2022/07/15 02:57:35;;;;;;;0.47;0.08;;;;;;;13.66;82.84;102107.66;4991905;28;1204705;-75
2022/07/15 03:00:01;;;;;;;2.38;0.85;;;;;;;13.61;83.50;102109.03;5036856;28;20395;-75
2022/07/15 03:02:27;;;;;;;0.10;0.10;;;;;;;13.56;83.58;102105.00;5035708;28;20490;-74
2022/07/15 03:04:52;;;;;;;0.05;0.05;;;;;;;13.50;83.92;102108.22;5037669;28;20035;-74
2022/07/15 03:07:18;;;;;;;0.20;0.20;;;;;;;13.40;84.28;102109.19;5033208;28;20067;-75
2022/07/15 03:09:43;;;;;;;0.22;0.20;;;;;;;13.30;85.43;102107.34;5032500;28;20029;-74
2022/07/15 03:12:08;;;;;;;0.22;0.20;;;;;;;13.26;85.80;102108.56;5019379;28;20024;-74
2022/07/15 03:14:34;;;;;;;0.20;0.17;;;;;;;13.19;85.02;102107.44;5021114;28;20040;-74
2022/07/15 03:16:59;;;;;;;0.80;0.45;;;;;;;13.14;85.27;102114.97;5035439;28;20463;-74
2022/07/15 03:19:25;;;;;;;0.38;0.30;;;;;;;13.14;86.02;102113.13;5022134;28;20040;-74
2022/07/15 03:21:50;;;;;;;0.93;0.90;;;;;;;13.07;85.91;102106.72;5038630;28;20021;-74
2022/07/15 03:24:16;;;;;;;0.15;0.13;;;;;;;13.14;86.56;102122.91;5018611;28;20061;-74
2022/07/15 03:26:42;;;;;;;0.10;0.00;;;;;;;13.20;86.63;102118.88;5020349;28;20025;-75
2022/07/15 03:29:08;;;;;;;0.10;0.10;;;;;;;13.27;87.14;102117.38;5037436;28;20025;-75
2022/07/15 03:31:33;;;;;;;0.10;0.10;;;;;;;13.33;85.93;102124.81;5034739;28;20532;-75
2022/07/15 03:33:58;;;;;;;0.98;0.10;;;;;;;13.36;86.30;102127.16;5034569;28;20116;-74
2022/07/15 03:36:24;;;;;;;0.20;0.10;;;;;;;13.40;86.50;102125.94;5033189;28;20164;-74
2022/07/15 03:38:51;;;;;;;1.13;0.05;;;;;;;13.43;86.14;102133.59;5031952;28;20033;-74
2022/07/15 03:41:21;;;;;;;1.95;0.40;;;;;;;13.49;85.05;102129.56;5033272;28;20060;-74
2022/07/15 03:43:47;;;;;;;0.30;0.30;;;;;;;13.47;85.80;102113.78;5036842;28;20041;-74
2022/07/15 03:46:15;;;;;;;4.57;0.63;;;;;;;13.58;85.58;102126.91;5035301;28;20460;-74
2022/07/15 03:48:41;;;;;;;0.00;0.00;;;;;;;13.58;85.22;102121.59;5036746;28;20021;-74
2022/07/15 03:51:07;;;;;;;0.10;0.10;;;;;;;13.68;84.47;102132.25;5040670;28;20025;-74
2022/07/15 03:53:32;;;;;;;0.68;0.10;;;;;;;13.74;86.03;102131.69;5023160;28;20021;-74
2022/07/15 03:55:58;;;;;;;0.32;0.22;;;;;;;13.71;87.15;102125.81;5039889;28;20025;-75
2022/07/15 03:58:23;;;;;;;0.13;0.10;;;;;;;13.78;86.73;102148.16;5036128;28;20045;-75
2022/07/15 04:00:49;;;;;;;0.05;0.05;;;;;;;13.83;87.54;102148.59;5038673;28;20098;-74
2022/07/15 04:03:16;;;;;;;1.33;0.20;;;;;;;13.79;91.22;102142.72;5040174;28;20059;-74
2022/07/15 04:05:42;;;;;;;0.38;0.30;;;;;;;13.75;92.79;102138.66;5039086;28;20227;-74
2022/07/15 04:08:07;;;;;;;0.93;0.30;;;;;;;13.78;91.93;102140.19;5037698;28;20108;-74
2022/07/15 04:10:32;;;;;;;1.42;0.30;;;;;;;13.77;93.86;102138.53;5036288;28;20408;-74
2022/07/15 04:12:58;;;;;;;1.30;0.43;;;;;;;13.85;94.11;102137.81;5040444;28;20129;-74
2022/07/15 04:15:24;;;;;;;0.43;0.40;;;;;;;13.97;94.09;102156.13;5036702;28;20079;-74
2022/07/15 04:17:49;;;;;;;0.38;0.15;;;;;;;14.01;93.76;102153.19;5037505;28;20033;-74
2022/07/15 04:20:14;;;;;;;3.92;0.32;;;;;;;13.95;93.91;102154.59;5041181;28;20045;-74
2022/07/15 04:22:41;;;;;;;0.30;0.30;;;;;;;13.82;94.95;102149.53;5040327;28;20032;-75
2022/07/15 04:25:08;;;;;;;0.88;0.30;;;;;;;13.80;95.56;102156.81;5039026;28;20025;-75
2022/07/15 04:27:33;;;;;;;0.30;0.25;;;;;;;13.58;96.49;102156.09;5038665;28;20036;-74
2022/07/15 04:29:59;;;;;;;1.85;0.43;;;;;;;13.54;97.74;102151.19;5039681;28;20399;-74
2022/07/15 04:32:25;;;;;;;0.68;0.17;;;;;;;13.52;96.90;102154.00;5037754;28;20107;-74
2022/07/15 04:34:51;;;;;;;4.57;0.60;;;;;;;13.57;97.25;102162.38;5021107;28;20449;-74
2022/07/15 04:37:16;;;;;;;0.30;0.30;;;;;;;13.49;98.36;102169.34;5037648;28;20056;-74
2022/07/15 04:39:42;;;;;;;0.60;0.47;;;;;;;13.50;97.57;102165.72;5034407;28;20048;-74
2022/07/15 04:42:07;;;;;;;5.57;0.43;;;;;;;13.52;97.39;102169.06;5041590;28;20048;-75
2022/07/15 04:44:32;;;;;;;0.63;0.50;;;;;;;13.54;97.00;102170.63;5036726;28;20160;-73
2022/07/15 04:46:58;;;;;;;5.72;0.43;;;;;;;13.42;97.70;102160.28;5034675;28;20036;-74
2022/07/15 04:52:08;;;;;;;1.42;0.40;;;;;;;13.59;96.05;102186.13;5035730;28;20036;-74
2022/07/15 04:54:33;;;;;;;0.10;0.10;;;;;;;13.67;93.90;102177.47;5041410;28;20029;-74
2022/07/15 04:56:59;;;;;;;1.10;0.25;;;;;;;13.63;93.04;102155.69;5036618;28;20516;-74
2022/07/15 04:59:24;;;;;;;6.30;0.20;;;;;;;13.81;92.84;102181.56;5016984;28;20053;-74
2022/07/15 05:01:49;;;;;;;2.53;0.10;;;;;;;13.93;92.53;102191.88;5036707;28;20043;-74
2022/07/15 05:04:15;;;;;;;0.22;0.13;;;;;;;14.00;92.85;102184.19;5034960;28;20033;-74
2022/07/15 05:06:40;;;;;;;0.20;0.17;;;;;;;14.04;93.10;102179.44;5034002;28;20028;-74
2022/07/15 05:09:06;;;;;;;0.17;0.08;;;;;;;14.15;93.05;102181.94;5030566;28;20484;-74
2022/07/15 05:11:31;;;;;;;0.82;0.20;;;;;;;14.25;92.49;102188.09;5031291;28;20034;-74
2022/07/15 05:13:56;;;;;;;0.05;0.05;;;;;;;14.33;91.93;102182.94;5031612;28;20125;-75
2022/07/15 05:16:22;;;;;;;0.10;0.10;;;;;;;14.44;91.94;102189.03;5013692;28;20080;-74
2022/07/15 05:18:47;;;;;;;0.88;0.32;;;;;;;14.55;92.47;102188.94;5035526;28;20029;-74
2022/07/15 05:21:13;;;;;;;0.10;0.10;;;;;;;14.81;91.28;102184.66;5039576;28;20467;-74
2022/07/15 05:23:40;;;;;;;0.30;0.30;;;;;;;15.02;91.03;102175.59;5032463;28;20033;-70
2022/07/15 05:26:05;;;;;;;0.25;0.10;;;;;;;15.25;89.94;102185.88;5031223;28;20425;-71
2022/07/15 05:28:31;;;;;;;1.50;0.13;;;;;;;15.40;88.96;102195.03;5034272;28;20026;-71
2022/07/15 05:30:56;;;;;;;0.45;0.22;;;;;;;15.57;86.55;102185.38;5031880;28;20033;-71
2022/07/15 05:33:22;;;;;;;0.52;0.35;;;;;;;15.76;85.60;102187.94;5026095;28;20043;-71
2022/07/15 05:35:48;;;;;;;1.65;0.32;;;;;;;16.09;85.26;102184.75;5032730;28;20029;-71
2022/07/15 05:38:13;;;;;;;0.52;0.28;;;;;;;16.42;83.41;102178.69;5033264;28;20375;-71
2022/07/15 05:40:38;;;;;;;0.40;0.10;;;;;;;16.81;82.53;102169.44;5013125;28;20078;-71
2022/07/15 05:43:04;;;;;;;0.77;0.10;;;;;;;17.23;81.98;102168.63;5030181;28;20486;-71
2022/07/15 05:45:29;;;;;;;0.10;0.00;;;;;;;17.39;78.52;102168.69;5031728;28;20060;-71
2022/07/15 05:47:54;;;;;;;1.95;0.63;;;;;;;17.44;79.41;102189.53;5032868;28;20082;-71
2022/07/15 05:50:20;;;;;;;0.73;0.30;;;;;;;17.30;78.57;102191.00;5028160;28;20074;-71
2022/07/15 05:52:46;;;;;;;2.40;0.10;;;;;;;17.06;78.07;102178.41;5030072;28;20037;-71
2022/07/15 05:55:12;;;;;;;0.03;0.03;;;;;;;17.08;77.28;102192.41;5030444;28;20052;-71
2022/07/15 05:57:37;;;;;;;0.93;0.10;;;;;;;17.00;76.98;102195.03;5034036;28;20075;-71
2022/07/15 06:00:04;;;;;;;0.80;0.28;;;;;;;16.91;78.56;102191.50;5035870;28;20034;-70
2022/07/15 06:02:30;;;;;;;0.15;0.05;;;;;;;16.84;78.09;102201.13;5035027;28;20029;-72
2022/07/15 06:04:56;;;;;;;0.35;0.35;;;;;;;16.82;78.00;102211.94;5035176;28;20099;-72
2022/07/15 06:07:21;;;;;;;0.25;0.17;;;;;;;16.76;77.05;102201.06;5036400;28;20040;-72
2022/07/15 06:09:50;;;;;;;3.08;0.25;;;;;;;16.81;76.72;102212.97;5034201;28;20052;-71
2022/07/15 06:12:16;;;;;;;0.45;0.45;;;;;;;16.84;77.15;102217.97;5035569;28;20032;-72
2022/07/15 06:14:42;;;;;;;0.15;0.13;;;;;;;16.83;76.04;102210.97;5032138;28;20037;-71
2022/07/15 06:17:07;;;;;;;0.00;0.00;;;;;;;16.72;75.73;102203.19;5032772;28;20029;-71
2022/07/15 06:19:32;;;;;;;0.60;0.10;;;;;;;16.69;75.98;102218.69;5026959;28;20104;-72
2022/07/15 06:21:59;;;;;;;0.05;0.05;;;;;;;16.62;76.87;102224.63;5018221;28;20029;-71
2022/07/15 06:24:24;;;;;;;1.23;0.17;;;;;;;16.61;77.04;102232.78;5040728;28;20032;-71
2022/07/15 06:26:50;;;;;;;0.95;0.10;;;;;;;16.38;81.11;102243.94;5034242;28;20597;-71
2022/07/15 06:29:16;;;;;;;2.05;0.40;;;;;;;16.08;84.10;102241.69;5035358;28;20079;-71
2022/07/15 06:31:41;;;;;;;2.90;0.90;;;;;;;15.83;85.93;102223.63;5034096;28;20518;-71
2022/07/15 06:34:07;;;;;;;1.85;0.17;;;;;;;15.92;86.47;102239.69;5036876;28;20025;-71
2022/07/15 06:36:32;;;;;;;0.10;0.10;;;;;;;15.76;86.48;102216.41;5032785;28;20337;-72
2022/07/15 06:38:58;;;;;;;0.20;0.20;;;;;;;15.99;87.52;102236.25;5020371;28;20052;-72
2022/07/15 06:41:24;;;;;;;0.35;0.15;;;;;;;16.04;87.63;102236.63;5037967;28;20029;-71
2022/07/15 06:43:49;;;;;;;0.98;0.60;;;;;;;16.11;87.24;102231.53;5034761;28;20485;-71
2022/07/15 06:46:14;;;;;;;0.77;0.35;;;;;;;16.32;87.03;102220.56;5031758;28;20076;-71
2022/07/15 06:48:41;;;;;;;0.20;0.10;;;;;;;16.83;85.61;102224.31;5033778;28;20029;-72
2022/07/15 06:51:07;;;;;;;0.35;0.17;;;;;;;17.87;83.11;102225.88;5035861;28;20060;-72
2022/07/15 06:53:33;;;;;;;1.65;0.30;;;;;;;19.25;78.20;102235.75;5033176;28;20072;-72
2022/07/15 06:55:58;;;;;;;0.80;0.20;;;;;;;20.32;72.47;102227.94;5036153;28;20025;-72
2022/07/15 06:58:23;;;;;;;1.73;0.10;;;;;;;20.42;72.67;102233.03;5030013;28;20072;-72
2022/07/15 07:00:49;;;;;;;2.03;0.10;;;;;;;20.70;70.84;102226.06;5020432;28;20033;-72
2022/07/15 07:03:14;;;;;;;0.20;0.20;;;;;;;20.45;70.65;102232.69;5003630;28;20539;-73
2022/07/15 07:05:39;;;;;;;1.05;0.40;;;;;;;20.08;71.21;102228.97;5031777;28;20111;-71
2022/07/15 07:08:05;;;;;;;0.03;0.00;;;;;;;19.16;73.72;102224.25;5038400;28;20029;-72
2022/07/15 07:10:31;;;;;;;0.80;0.35;;;;;;;19.19;75.17;102234.63;5032339;28;20437;-72
2022/07/15 07:12:57;;;;;;;0.40;0.20;;;;;;;18.92;73.97;102233.19;5037021;28;20032;-71
2022/07/15 07:15:23;;;;;;;0.70;0.10;;;;;;;18.80;75.12;102229.22;5036924;28;20030;-71
2022/07/15 07:17:52;;;;;;;1.40;0.30;;;;;;;18.67;75.34;102227.06;5032665;28;20109;-71
2022/07/15 07:20:18;;;;;;;0.30;0.10;;;;;;;18.48;77.57;102213.03;5041256;28;20485;-71
2022/07/15 07:22:44;;;;;;;1.50;0.22;;;;;;;18.47;77.98;102214.03;5035280;28;20028;-71
2022/07/15 07:25:09;;;;;;;1.85;0.28;;;;;;;18.35;77.26;102231.41;5040491;28;20278;-71
2022/07/15 07:27:34;;;;;;;0.75;0.30;;;;;;;18.24;76.71;102215.72;5038328;28;20018;-71
2022/07/15 07:30:02;;;;;;;1.27;0.28;;;;;;;18.08;78.74;102211.22;5025483;28;20025;-71
2022/07/15 07:32:28;;;;;;;0.32;0.32;;;;;;;18.14;79.18;102207.03;5040471;28;20481;-72
2022/07/15 07:34:53;;;;;;;2.53;0.22;;;;;;;18.27;79.20;102188.69;5039279;28;20159;-72
2022/07/15 07:37:19;;;;;;;2.78;0.63;;;;;;;18.41;77.76;102212.03;5024654;28;20163;-72
2022/07/15 07:39:44;;;;;;;0.47;0.32;;;;;;;18.46;77.18;102220.38;5034842;28;20708;-72
2022/07/15 07:42:09;;;;;;;3.78;0.30;;;;;;;18.68;77.08;102213.50;5036415;28;20040;-72
2022/07/15 07:44:36;;;;;;;0.28;0.10;;;;;;;18.79;76.97;102220.38;5034765;28;20049;-72
2022/07/15 07:47:02;;;;;;;0.60;0.25;;;;;;;18.83;75.89;102218.19;5039589;28;20021;-72
2022/07/15 07:49:27;;;;;;;0.00;0.00;;;;;;;18.67;75.98;102217.19;5034187;28;20043;-72
2022/07/15 07:51:53;;;;;;;1.25;0.40;;;;;;;18.76;76.82;102218.00;5035915;28;20685;-72
2022/07/15 07:54:18;;;;;;;0.30;0.20;;;;;;;19.13;75.65;102221.09;5038205;28;20033;-72
2022/07/15 07:56:45;;;;;;;0.10;0.03;;;;;;;19.69;75.50;102222.69;5041882;28;20036;-72
2022/07/15 07:59:11;;;;;;;2.58;0.20;;;;;;;20.04;72.31;102211.56;5045587;28;20191;-72
2022/07/15 08:01:36;;;;;;;0.47;0.32;;;;;;;20.31;71.46;102210.16;5041771;28;20013;-72
2022/07/15 08:04:02;;;;;;;1.75;0.40;;;;;;;20.88;69.97;102215.00;5042932;28;20508;-72
2022/07/15 08:06:28;;;;;;;0.22;0.15;;;;;;;21.30;68.35;102215.34;5043870;28;20033;-72
2022/07/15 08:08:53;;;;;;;0.98;0.30;;;;;;;21.48;68.11;102202.34;5024664;28;20029;-72
2022/07/15 08:11:19;;;;;;;0.40;0.10;;;;;;;22.16;64.84;102212.72;5037897;28;20405;-72
2022/07/15 08:13:45;;;;;;;2.08;0.10;;;;;;;22.79;65.26;102215.50;5036124;28;20552;-72
2022/07/15 08:16:11;;;;;;;0.10;0.00;;;;;;;23.69;58.36;102215.47;5039422;28;20025;-72
2022/07/15 08:18:36;;;;;;;0.40;0.20;;;;;;;23.91;56.45;102218.84;5035625;28;20052;-72
2022/07/15 08:21:03;;;;;;;0.10;0.10;;;;;;;23.97;55.66;102218.03;5039271;28;20459;-72
2022/07/15 08:23:31;;;;;;;0.43;0.30;;;;;;;24.61;54.50;102212.03;5040020;28;20029;-72
2022/07/15 08:25:56;;;;;;;0.25;0.15;;;;;;;25.25;52.98;102214.97;5038422;28;20204;-72
2022/07/15 08:28:22;;;;;;;0.08;0.08;;;;;;;25.61;53.43;102229.75;5040341;28;20370;-72
2022/07/15 08:30:47;;;;;;;0.82;0.28;;;;;;;25.21;51.86;102227.22;5041072;28;20032;-72
2022/07/15 08:33:14;;;;;;;0.10;0.00;;;;;;;24.90;53.20;102220.66;5036369;28;20025;-72
2022/07/15 08:35:41;;;;;;;0.73;0.10;;;;;;;24.50;54.01;102228.84;5035397;28;20045;-72
2022/07/15 08:38:07;;;;;;;0.75;0.00;;;;;;;24.22;54.50;102224.47;5033715;28;20364;-72
2022/07/15 08:40:34;;;;;;;0.00;0.00;;;;;;;24.34;55.55;102223.84;5032639;28;20072;-72
2022/07/15 08:42:59;;;;;;;2.90;0.43;;;;;;;24.18;56.34;102225.09;5038839;28;20026;-76
2022/07/15 08:45:25;;;;;;;0.15;0.03;;;;;;;24.18;55.34;102225.09;5038165;28;20030;-72
2022/07/15 08:47:52;;;;;;;0.00;0.00;;;;;;;24.38;56.29;102228.63;5040253;28;20035;-72
2022/07/15 08:50:18;;;;;;;0.10;0.00;;;;;;;25.63;53.50;102211.41;5042068;28;20037;-70
2022/07/15 08:52:45;;;;;;;2.17;0.17;;;;;;;25.84;53.12;102212.97;5040932;28;20028;-71
2022/07/15 08:55:12;;;;;;;1.85;0.22;;;;;;;25.82;53.70;102226.69;5040195;28;20063;-72
2022/07/15 08:57:38;;;;;;;0.25;0.03;;;;;;;25.64;53.14;102218.50;5032646;28;20075;-70
2022/07/15 09:00:10;;;;;;;1.05;0.10;;;;;;;25.45;52.80;102214.84;5040517;28;20028;-71
2022/07/15 09:02:37;;;;;;;0.28;0.10;;;;;;;25.83;54.26;102217.53;5032467;28;20417;-71
2022/07/15 09:05:18;;;;;;;0.03;0.00;;;;;;;26.96;50.19;102221.13;5037831;28;20029;-70
2022/07/15 09:07:53;;;;;;;;;;;;;;;27.75;50.00;102223.84;5037823;28;20033;-70
2022/07/15 09:10:21;;;;;;;0.17;0.10;;;;;;;27.27;48.32;102219.31;5040388;28;19913;-70
2022/07/15 09:12:51;;;;;;;0.47;0.47;;;;;;;26.32;49.49;102222.38;5035735;28;20058;-71
2022/07/15 09:15:35;;;;;;;0.65;0.10;;;;;;;25.54;49.97;102212.72;5036498;28;20084;-71
2022/07/15 09:18:13;;;;;;;0.80;0.25;;;;;;;25.70;50.80;102212.22;5031798;28;20036;-70
2022/07/15 09:20:40;;;;;;;0.10;0.00;;;;;;;25.27;50.46;102215.56;5044493;28;20021;-70
2022/07/15 09:23:06;;;;;;;0.35;0.20;;;;;;;25.35;50.54;102207.22;5039962;28;20040;-70
2022/07/15 09:25:33;;;;;;;0.10;0.00;;;;;;;25.19;51.52;102210.38;5045734;28;20025;-70
2022/07/15 09:28:03;;;;;;;1.27;0.25;;;;;;;25.04;52.31;102199.84;5039812;28;20029;-70
2022/07/15 09:33:38;;;;;;;0.15;0.10;;;;;;;24.09;54.34;102211.00;5031095;28;20364;-70
2022/07/15 09:36:14;;;;;;;0.10;0.10;;;;;;;24.17;54.16;102212.63;5040350;28;20036;-70
2022/07/15 09:38:40;;;;;;;0.57;0.20;;;;;;;24.39;55.42;102211.41;5036407;28;20025;-70
2022/07/15 09:41:27;;;;;;;0.20;0.10;;;;;;;24.51;55.01;102214.31;5039033;28;20119;-70
2022/07/15 09:44:08;;;;;;;0.08;0.00;;;;;;;24.82;53.34;102210.09;5034887;28;20044;-70
2022/07/15 09:46:49;;;;;;;0.32;0.13;;;;;;;24.72;54.26;102215.13;5041614;28;20032;-70
2022/07/15 09:49:35;;;;;;;0.43;0.30;;;;;;;23.60;55.37;102225.59;5040418;28;20025;-70
2022/07/15 09:52:06;;;;;;;0.00;0.00;;;;;;;23.07;57.40;102217.34;5029196;28;20036;-70
2022/07/15 09:54:38;;;;;;;0.28;0.10;;;;;;;22.99;57.75;102216.44;5031838;28;20025;-71
2022/07/15 09:57:14;;;;;;;2.88;0.10;;;;;;;23.12;57.60;102220.25;5042062;28;20033;-70
2022/07/15 09:59:39;;;;;;;0.38;0.10;;;;;;;23.71;56.72;102214.22;5047581;28;20053;-70
2022/07/15 10:02:05;;;;;;;0.52;0.50;;;;;;;24.87;54.41;102201.34;5038278;28;20123;-70
2022/07/15 10:04:30;;;;;;;0.98;0.30;;;;;;;25.41;53.86;102209.06;5038887;28;20025;-70
2022/07/15 10:07:02;;;;;;;0.55;0.20;;;;;;;25.20;53.09;102206.69;5030462;28;20025;-70
2022/07/15 10:09:30;;;;;;;0.10;0.03;;;;;;;25.18;53.47;102208.72;5030244;28;20634;-71
2022/07/15 10:12:02;;;;;;;0.35;0.10;;;;;;;24.92;53.93;102199.69;5039868;28;20397;-70
2022/07/15 10:14:34;;;;;;;1.38;0.70;;;;;;;24.51;53.52;102203.53;5039127;28;20083;-70
2022/07/15 10:17:18;;;;;;;0.20;0.00;;;;;;;24.43;52.98;102211.78;5030501;28;20068;-71
2022/07/15 10:20:12;;;;;;;0.28;0.17;;;;;;;24.15;53.97;102199.38;5029851;28;20048;-69
2022/07/15 10:23:01;;;;;;;0.30;0.20;;;;;;;23.78;54.86;102214.28;5036158;28;20035;-70
2022/07/15 10:25:45;;;;;;;0.30;0.20;;;;;;;23.77;55.14;102208.03;5030525;28;20025;-71
2022/07/15 10:28:19;;;;;;;0.25;0.08;;;;;;;23.63;54.81;102209.03;5035077;28;20021;-70
2022/07/15 10:30:45;;;;;;;0.88;0.17;;;;;;;23.73;54.73;102193.28;5043478;28;20034;-71
2022/07/15 10:33:16;;;;;;;0.43;0.25;;;;;;;23.80;54.63;102202.25;5034793;28;20028;-70
2022/07/15 10:35:49;;;;;;;0.20;0.10;;;;;;;23.95;53.20;102203.91;5036361;28;20335;-70
2022/07/15 10:38:28;;;;;;;1.15;0.32;;;;;;;24.03;53.87;102199.16;5027584;28;20030;-70
2022/07/15 10:41:08;;;;;;;0.88;0.20;;;;;;;24.07;53.10;102196.88;5030024;28;20033;-70
2022/07/15 10:43:40;;;;;;;0.15;0.10;;;;;;;24.05;52.60;102200.81;5028882;28;20078;-70
2022/07/15 10:46:17;;;;;;;0.10;0.10;;;;;;;23.76;54.19;102195.63;5029090;28;20120;-70
2022/07/15 10:48:44;;;;;;;0.57;0.30;;;;;;;23.75;53.80;102199.31;5029601;28;20028;-70
2022/07/15 10:51:10;;;;;;;0.35;0.30;;;;;;;23.57;54.14;102185.59;5030850;28;20029;-70
2022/07/15 10:53:46;;;;;;;0.90;0.22;;;;;;;23.39;54.58;102197.78;5031899;28;20070;-70
2022/07/15 10:56:50;;;;;;;0.55;0.17;;;;;;;22.95;54.85;102201.72;5032290;28;20026;-71
2022/07/15 10:59:23;;;;;;;0.20;0.20;;;;;;;23.03;56.92;102199.91;5031132;28;20061;-70
2022/07/15 11:02:16;;;;;;;2.83;0.25;;;;;;;23.13;56.70;102185.06;5037726;28;20082;-70
2022/07/15 11:04:42;;;;;;;0.30;0.20;;;;;;;22.97;56.54;102196.13;5035651;28;20037;-70
2022/07/15 11:07:09;;;;;;;0.68;0.20;;;;;;;22.99;56.90;102197.59;5034307;28;20021;-70
2022/07/15 11:09:55;;;;;;;0.25;0.10;;;;;;;22.98;55.78;102189.72;5034214;28;20156;-70
2022/07/15 11:12:43;;;;;;;0.10;0.10;;;;;;;23.24;56.67;102180.13;5032994;28;20493;-70
2022/07/15 11:15:16;;;;;;;0.22;0.10;;;;;;;23.31;55.24;102192.56;5033376;28;20053;-70
2022/07/15 11:17:47;;;;;;;0.52;0.43;;;;;;;23.31;54.75;102187.19;5031982;28;20064;-70
2022/07/15 11:20:15;;;;;;;0.28;0.20;;;;;;;23.20;55.43;102185.06;5032428;28;20093;-70
2022/07/15 11:22:50;;;;;;;0.20;0.10;;;;;;;22.84;56.34;102190.66;5027835;28;20032;-70
2022/07/15 11:25:37;;;;;;;0.75;0.10;;;;;;;22.79;56.78;102184.00;5028940;28;20025;-70
2022/07/15 11:28:12;;;;;;;1.00;0.38;;;;;;;22.51;57.36;102180.53;5030693;28;20044;-70
2022/07/15 11:30:41;;;;;;;4.65;0.40;;;;;;;22.50;58.06;102178.88;5031251;28;20265;-70
2022/07/15 11:33:14;;;;;;;0.73;0.30;;;;;;;22.37;58.04;102179.63;5041333;28;20036;-69
2022/07/15 11:35:49;;;;;;;0.20;0.20;;;;;;;22.11;58.36;102167.59;5030347;28;20025;-70